createdAt,value
2022-12-18T00:00:09.679Z,-1.06
2022-12-18T00:03:17.458Z,-1.10
2022-12-18T00:06:20.168Z,-1.14
2022-12-18T00:09:22.760Z,-1.13
2022-12-18T00:12:26.952Z,-1.16
2022-12-18T00:15:28.776Z,-1.17
2022-12-18T00:18:30.811Z,-1.23
2022-12-18T00:21:33.551Z,-1.20
2022-12-18T00:24:35.724Z,-1.19
2022-12-18T00:27:37.580Z,-1.19
2022-12-18T00:30:39.447Z,-1.16
2022-12-18T00:33:44.349Z,-1.16
2022-12-18T00:36:48.614Z,-1.18
2022-12-18T00:39:50.668Z,-1.10
2022-12-18T00:42:57.318Z,-1.01
2022-12-18T00:45:59.266Z,-0.97
2022-12-18T00:49:01.460Z,-1.01
2022-12-18T00:52:03.357Z,-0.93
2022-12-18T00:55:06.639Z,-0.95
2022-12-18T00:58:09.630Z,-0.88
2022-12-18T01:01:11.531Z,-0.86
2022-12-18T01:04:14.531Z,-0.91
2022-12-18T01:07:16.430Z,-0.90
2022-12-18T01:10:19.661Z,-0.84
2022-12-18T01:13:21.506Z,-0.72
2022-12-18T01:16:25.712Z,-0.94
2022-12-18T01:19:27.621Z,-0.99
2022-12-18T01:22:30.308Z,-0.96
2022-12-18T01:25:32.189Z,-0.94
2022-12-18T01:28:34.347Z,-0.87
2022-12-18T01:31:37.813Z,-0.70
2022-12-18T01:34:39.679Z,-0.67
2022-12-18T01:37:41.530Z,-0.61
2022-12-18T01:40:43.427Z,-0.53
2022-12-18T01:43:57.876Z,-0.53
2022-12-18T01:46:59.734Z,-0.55
2022-12-18T01:50:09.817Z,-0.55
2022-12-18T01:53:18.851Z,-0.59
2022-12-18T01:56:22.391Z,-0.66
2022-12-18T01:59:25.215Z,-0.71
2022-12-18T02:02:29.421Z,-0.75
2022-12-18T02:06:00.211Z,-0.82
2022-12-18T02:09:29.504Z,-0.85
2022-12-18T02:12:56.139Z,-0.79
2022-12-18T02:16:11.666Z,-0.77
2022-12-18T02:19:21.026Z,-0.77
2022-12-18T02:22:44.609Z,-0.78
2022-12-18T02:26:24.331Z,-0.74
2022-12-18T02:29:33.790Z,-0.78
2022-12-18T02:32:41.809Z,-0.80
2022-12-18T02:35:46.346Z,-0.85
2022-12-18T02:38:49.632Z,-0.89
2022-12-18T02:41:52.874Z,-0.89
2022-12-18T02:44:58.247Z,-0.84
2022-12-18T03:57:05.819Z,-1.81
2022-12-18T04:00:14.605Z,-1.80
2022-12-18T04:03:22.664Z,-1.70
2022-12-18T04:06:30.543Z,-1.69
2022-12-18T04:09:35.165Z,-1.68
2022-12-18T04:12:38.456Z,-1.61
2022-12-18T04:15:41.477Z,-1.61
2022-12-18T04:18:47.835Z,-1.57
2022-12-18T04:21:56.634Z,-1.52
2022-12-18T04:24:58.600Z,-1.48
2022-12-18T04:28:07.354Z,-1.43
2022-12-18T04:31:10.594Z,-1.38
2022-12-18T05:07:17.613Z,-0.79
2022-12-18T05:10:19.601Z,-0.72
2022-12-18T05:13:21.451Z,-0.70
2022-12-18T05:16:23.326Z,-0.64
2022-12-18T05:19:25.287Z,-0.72
2022-12-18T05:22:27.132Z,-0.65
2022-12-18T05:25:28.951Z,-0.63
2022-12-18T05:28:33.613Z,-0.71
2022-12-18T05:31:39.652Z,-0.74
2022-12-18T05:34:41.824Z,-0.61
2022-12-18T05:37:43.734Z,-0.64
2022-12-18T05:40:46.143Z,-0.65
2022-12-18T05:43:48.075Z,-0.95
2022-12-18T05:46:50.101Z,-0.98
2022-12-18T05:49:52.047Z,-1.02
2022-12-18T05:52:53.955Z,-1.26
2022-12-18T05:56:00.530Z,-1.27
2022-12-18T05:59:02.433Z,-1.27
2022-12-18T06:02:04.925Z,-1.18
2022-12-18T06:05:07.242Z,-1.28
2022-12-18T06:08:09.876Z,-1.45
2022-12-18T06:11:12.595Z,-1.46
2022-12-18T06:14:14.567Z,-1.53
2022-12-18T06:17:16.400Z,-1.61
2022-12-18T09:52:53.779Z,-1.70
2022-12-18T09:55:57.566Z,-1.51
2022-12-18T09:59:01.486Z,-1.46
2022-12-18T10:02:16.258Z,-1.65
2022-12-18T10:05:26.260Z,-1.42
2022-12-18T10:08:46.268Z,-1.51
2022-12-18T10:12:27.257Z,-1.54
2022-12-18T10:15:40.495Z,-1.59
2022-12-18T10:18:48.205Z,-1.82
2022-12-18T10:22:09.651Z,-1.53
2022-12-18T11:02:10.785Z,-0.99
2022-12-18T11:05:37.762Z,-0.76
2022-12-18T11:08:41.859Z,-1.02
2022-12-18T11:11:50.148Z,-1.11
2022-12-18T11:14:54.399Z,-1.11
2022-12-18T11:17:56.519Z,-1.12
2022-12-18T11:21:11.042Z,-1.02
2022-12-18T11:24:31.051Z,-0.84
2022-12-18T11:27:33.792Z,-0.60
2022-12-18T11:30:37.687Z,-0.74
2022-12-18T11:34:04.799Z,-0.60
2022-12-18T13:23:37.388Z,-1.00
2022-12-18T13:26:39.392Z,-0.96
2022-12-18T13:29:46.847Z,-1.08
2022-12-18T13:32:52.988Z,-1.01
2022-12-18T13:36:26.987Z,-1.26
2022-12-18T13:39:35.232Z,-1.15
2022-12-18T13:43:00.218Z,-1.11
2022-12-18T13:46:26.852Z,-1.08
2022-12-18T13:49:40.782Z,-1.00
2022-12-18T13:52:44.700Z,-1.11
2022-12-18T13:55:46.950Z,-1.11
2022-12-18T13:59:25.301Z,-1.09
2022-12-18T14:02:29.336Z,-0.96
2022-12-18T14:05:33.568Z,-1.06
2022-12-18T14:08:40.413Z,-1.21
2022-12-18T14:11:48.342Z,-1.16
2022-12-18T14:14:53.528Z,-1.45
2022-12-18T14:18:39.187Z,-1.19
2022-12-18T14:21:41.494Z,-1.21
2022-12-18T14:24:43.558Z,-1.25
2022-12-18T14:28:07.411Z,-1.29
2022-12-18T14:31:19.451Z,-1.57
2022-12-18T14:34:27.882Z,-1.53
2022-12-18T14:37:29.731Z,-1.50
2022-12-18T14:40:31.899Z,-1.43
2022-12-18T14:43:36.384Z,-1.41
2022-12-18T14:46:41.153Z,-1.15
2022-12-18T14:49:44.139Z,-1.08
2022-12-18T14:52:46.122Z,-1.31
2022-12-18T14:55:49.077Z,-1.11
2022-12-18T14:58:54.374Z,-1.04
2022-12-18T15:02:03.286Z,-1.01
2022-12-18T15:05:29.430Z,-1.21
2022-12-18T15:08:38.095Z,-1.16
2022-12-18T15:11:42.769Z,-1.31
2022-12-18T15:14:44.819Z,-1.23
2022-12-18T15:17:46.843Z,-1.62
2022-12-18T15:20:53.627Z,-1.61
2022-12-18T15:23:56.600Z,-1.77
2022-12-18T15:26:59.543Z,-1.64
2022-12-18T15:30:02.731Z,-1.65
2022-12-18T15:33:26.821Z,-1.74
2022-12-18T15:36:29.167Z,-1.69
2022-12-18T15:39:31.303Z,-1.67
2022-12-18T15:42:51.849Z,-1.73
2022-12-18T15:45:54.094Z,-1.79
2022-12-18T15:49:01.821Z,-1.89
2022-12-18T15:52:04.668Z,-1.78
2022-12-18T15:55:32.910Z,-2.04
2022-12-18T15:58:35.254Z,-2.07
2022-12-18T16:01:42.322Z,-2.11
2022-12-18T16:04:46.911Z,-2.07
2022-12-18T16:07:49.060Z,-2.00
2022-12-18T16:10:51.184Z,-1.90
2022-12-18T16:13:53.294Z,-1.84
2022-12-18T16:17:02.331Z,-1.93
2022-12-18T16:20:05.066Z,-1.79
2022-12-18T16:23:07.604Z,-1.79
2022-12-18T16:26:09.759Z,-1.70
2022-12-18T16:29:12.231Z,-1.58
2022-12-18T16:32:18.544Z,-1.56
2022-12-18T16:35:21.103Z,-1.69
2022-12-18T16:38:23.178Z,-1.77
2022-12-18T16:41:32.282Z,-1.84
2022-12-18T16:44:35.118Z,-1.94
2022-12-18T16:47:38.964Z,-1.91
2022-12-18T16:50:41.489Z,-2.03
2022-12-18T16:53:44.176Z,-2.06
2022-12-18T16:56:49.905Z,-2.11
2022-12-18T16:59:52.436Z,-2.22
2022-12-18T17:02:54.750Z,-2.24
2022-12-18T17:06:03.243Z,-2.30
2022-12-18T17:09:09.175Z,-2.33
2022-12-18T17:12:11.459Z,-2.39
2022-12-18T17:15:14.124Z,-2.43
2022-12-18T17:18:16.284Z,-2.42
2022-12-18T17:21:18.384Z,-2.39
2022-12-18T17:24:21.516Z,-2.41
2022-12-18T17:27:23.627Z,-2.40
2022-12-18T19:16:27.450Z,-3.31
2022-12-18T19:19:30.459Z,-3.23
2022-12-18T19:22:32.634Z,-3.26
2022-12-18T19:25:41.156Z,-3.26
2022-12-18T19:28:45.270Z,-3.40
2022-12-18T19:31:47.175Z,-3.29
2022-12-18T19:34:49.352Z,-3.44
2022-12-18T19:37:52.259Z,-3.42
2022-12-18T19:40:54.388Z,-3.59
2022-12-18T19:43:56.340Z,-3.75
2022-12-18T19:46:58.356Z,-3.65
2022-12-18T19:50:00.762Z,-3.75
2022-12-18T19:53:03.307Z,-3.84
2022-12-18T19:56:09.882Z,-3.79
2022-12-18T19:59:12.703Z,-3.86
2022-12-18T20:02:15.184Z,-3.88
2022-12-18T20:05:17.406Z,-4.04
2022-12-18T20:08:19.398Z,-3.91
2022-12-18T20:11:21.852Z,-4.02
2022-12-18T20:14:26.403Z,-4.05
2022-12-18T20:17:28.638Z,-4.05
2022-12-18T20:20:31.792Z,-3.93
2022-12-18T20:23:34.340Z,-3.95
2022-12-18T20:26:40.546Z,-4.04
2022-12-18T21:01:55.687Z,-4.57
2022-12-18T21:04:57.627Z,-4.55
2022-12-18T21:07:59.657Z,-4.65
2022-12-18T21:11:38.680Z,-4.68
2022-12-18T21:14:40.583Z,-4.73
2022-12-18T21:17:44.261Z,-4.77
2022-12-18T21:20:46.776Z,-4.78
